createdAt,value
2023-03-16T00:01:10.419Z,3.28
2023-03-16T00:06:02.932Z,3.33
2023-03-16T00:10:56.622Z,3.30
2023-03-16T00:15:55.216Z,3.37
2023-03-16T00:20:48.561Z,3.40
2023-03-16T00:25:43.447Z,3.47
2023-03-16T00:30:34.823Z,3.30
2023-03-16T00:35:29.545Z,3.67
2023-03-16T00:40:22.585Z,3.72
2023-03-16T00:45:17.635Z,3.80
2023-03-16T00:50:13.064Z,3.67
2023-03-16T00:55:03.600Z,3.78
2023-03-16T00:59:53.818Z,4.10
2023-03-16T01:04:47.145Z,3.95
2023-03-16T01:09:39.346Z,3.30
2023-03-16T01:14:34.296Z,3.72
2023-03-16T01:19:26.768Z,3.53
2023-03-16T01:24:20.983Z,3.37
2023-03-16T01:29:13.313Z,4.25
2023-03-16T01:34:08.251Z,4.07
2023-03-16T01:39:01.222Z,3.72
2023-03-16T01:44:03.827Z,3.78
2023-03-16T01:49:10.953Z,2.97
2023-03-16T01:54:15.067Z,3.70
2023-03-16T01:59:19.715Z,3.87
2023-03-16T02:04:26.641Z,4.17
2023-03-16T02:09:22.680Z,3.55
2023-03-16T02:14:16.591Z,2.97
2023-03-16T02:19:13.589Z,3.47
2023-03-16T02:24:07.507Z,2.60
2023-03-16T02:29:11.395Z,2.65
2023-03-16T02:34:07.558Z,2.85
2023-03-16T02:38:59.191Z,2.73
2023-03-16T02:43:57.062Z,2.97
2023-03-16T02:49:03.477Z,2.90
2023-03-16T02:54:03.854Z,2.60
2023-03-16T02:58:58.586Z,2.65
2023-03-16T03:03:52.288Z,2.43
2023-03-16T03:08:46.007Z,2.20
2023-03-16T03:13:44.981Z,2.17
2023-03-16T03:18:40.410Z,2.63
2023-03-16T03:23:31.805Z,2.27
2023-03-16T03:28:25.268Z,2.40
2023-03-16T03:33:18.962Z,2.20
2023-03-16T03:38:13.776Z,1.90
2023-03-16T03:43:09.067Z,2.90
2023-03-16T03:48:08.312Z,2.35
2023-03-16T03:53:02.350Z,1.88
2023-03-16T03:57:58.954Z,2.03
2023-03-16T04:02:53.176Z,2.13
2023-03-16T04:07:55.633Z,2.13
2023-03-16T04:12:57.812Z,2.03
2023-03-16T04:17:50.764Z,2.00
2023-03-16T04:22:43.244Z,2.10
2023-03-16T04:27:36.873Z,1.90
2023-03-16T04:32:40.911Z,1.88
2023-03-16T04:37:32.586Z,1.80
2023-03-16T04:42:23.598Z,2.20
2023-03-16T04:47:14.306Z,1.87
2023-03-16T04:52:08.405Z,2.20
2023-03-16T04:56:59.983Z,2.22
2023-03-16T05:02:02.070Z,2.65
2023-03-16T05:06:55.644Z,1.92
2023-03-16T05:11:56.111Z,2.25
2023-03-16T05:16:50.275Z,1.90
2023-03-16T05:21:42.674Z,2.03
2023-03-16T05:26:41.509Z,2.03
2023-03-16T05:31:40.157Z,2.10
2023-03-16T05:36:38.336Z,1.55
2023-03-16T05:41:41.372Z,1.70
2023-03-16T05:46:56.701Z,1.70
2023-03-16T05:51:49.205Z,1.60
2023-03-16T05:56:40.002Z,1.73
2023-03-16T06:01:32.024Z,1.40
2023-03-16T06:06:25.593Z,1.63
2023-03-16T06:11:39.070Z,1.73
2023-03-16T06:16:34.055Z,1.50
2023-03-16T06:21:34.566Z,1.70
2023-03-16T06:26:35.165Z,1.60
2023-03-16T06:31:30.459Z,1.65
2023-03-16T06:36:21.952Z,2.00
2023-03-16T06:41:23.362Z,1.75
2023-03-16T06:46:19.663Z,1.58
2023-03-16T06:51:16.319Z,1.70
2023-03-16T06:56:13.139Z,1.83
2023-03-16T07:01:12.837Z,1.70
2023-03-16T07:06:06.109Z,1.48
2023-03-16T07:10:58.764Z,1.50
2023-03-16T07:15:50.062Z,1.53
2023-03-16T07:20:44.892Z,1.00
2023-03-16T07:25:35.329Z,1.00
2023-03-16T07:30:28.254Z,1.10
2023-03-16T07:35:19.000Z,1.00
2023-03-16T07:40:15.216Z,1.20
2023-03-16T07:45:09.478Z,0.90
2023-03-16T07:50:01.842Z,0.88
2023-03-16T07:54:52.850Z,0.83
2023-03-16T07:59:50.171Z,0.77
2023-03-16T08:04:46.112Z,0.90
2023-03-16T08:09:53.470Z,1.00
2023-03-16T08:14:54.963Z,0.80
2023-03-16T08:19:51.999Z,0.80
2023-03-16T08:24:49.770Z,0.97
2023-03-16T08:29:42.857Z,0.80
2023-03-16T08:34:44.081Z,0.70
2023-03-16T08:39:38.059Z,0.93
2023-03-16T08:44:37.336Z,0.80
2023-03-16T08:49:30.777Z,0.85
2023-03-16T08:54:36.028Z,0.60
2023-03-16T08:59:30.459Z,0.50
2023-03-16T09:04:22.026Z,0.73
2023-03-16T09:09:13.867Z,0.70
2023-03-16T09:14:07.104Z,0.45
2023-03-16T09:18:58.706Z,0.98
2023-03-16T12:56:53.888Z,0.10
2023-03-16T13:01:48.360Z,0.40
2023-03-16T13:06:53.677Z,0.30
2023-03-16T13:11:50.577Z,0.30
2023-03-16T13:16:45.706Z,0.20
2023-03-16T13:21:44.831Z,0.10
2023-03-16T13:26:53.580Z,0.10
2023-03-16T13:32:00.773Z,0.10
2023-03-16T13:36:59.961Z,0.10
2023-03-16T13:42:03.834Z,0.10
2023-03-16T13:46:57.371Z,0.25
2023-03-16T13:51:50.086Z,0.17
2023-03-16T13:56:47.449Z,0.20
2023-03-16T14:01:41.957Z,0.20
2023-03-16T14:06:35.735Z,0.28
2023-03-16T14:11:30.043Z,0.20
2023-03-16T14:16:29.565Z,0.32
2023-03-16T14:21:26.128Z,0.20
2023-03-16T14:26:22.734Z,0.20
2023-03-16T14:31:28.544Z,0.20
2023-03-16T14:36:26.180Z,0.10
2023-03-16T14:41:28.923Z,0.10
2023-03-16T15:55:08.831Z,0.20
2023-03-16T16:00:02.960Z,0.40
2023-03-16T16:04:56.724Z,0.10
2023-03-16T16:09:50.136Z,0.20
2023-03-16T16:14:45.383Z,0.20
2023-03-16T16:19:39.895Z,0.17
2023-03-16T16:24:31.664Z,0.13
2023-03-16T16:29:26.030Z,0.10
2023-03-16T16:34:22.642Z,0.10
2023-03-16T16:39:15.704Z,0.20
2023-03-16T16:44:10.488Z,0.17
2023-03-16T16:49:26.798Z,0.20
2023-03-16T16:54:19.302Z,0.10
2023-03-16T16:59:19.404Z,0.20
2023-03-16T17:04:24.031Z,0.30
2023-03-16T17:09:14.835Z,0.20
2023-03-16T17:14:08.086Z,0.20
2023-03-16T17:18:58.836Z,0.20
2023-03-16T17:24:04.493Z,0.30
2023-03-16T17:29:02.538Z,0.20
2023-03-16T17:33:59.747Z,0.40
2023-03-16T17:39:03.911Z,0.20
2023-03-16T17:43:58.648Z,0.20
2023-03-16T17:48:51.431Z,0.30
2023-03-16T17:53:42.940Z,0.20
2023-03-16T17:58:37.604Z,0.20
2023-03-16T18:03:30.851Z,0.50
2023-03-16T18:08:30.040Z,0.30
2023-03-16T18:13:23.489Z,0.20
2023-03-16T18:18:22.534Z,0.30
2023-03-16T18:23:20.753Z,0.30
2023-03-16T18:28:14.464Z,0.30
2023-03-16T18:33:07.718Z,0.30
2023-03-16T18:38:01.262Z,0.30
2023-03-16T18:42:55.487Z,0.30
2023-03-16T18:47:59.186Z,0.40
2023-03-16T18:52:59.971Z,0.30
2023-03-16T18:57:59.890Z,0.20
2023-03-16T19:02:55.583Z,0.30
2023-03-16T19:07:57.737Z,0.28
2023-03-16T19:12:50.766Z,0.30
2023-03-16T19:17:49.102Z,0.30
2023-03-16T19:22:44.436Z,0.50
2023-03-16T19:27:46.343Z,0.30
2023-03-16T19:32:39.373Z,0.30
2023-03-16T19:37:36.913Z,0.30
2023-03-16T19:42:34.336Z,0.40
2023-03-16T19:47:32.379Z,0.40
2023-03-16T19:52:26.429Z,0.40
2023-03-16T19:57:26.098Z,0.40
2023-03-16T20:02:32.402Z,0.40
2023-03-16T20:07:23.853Z,0.40
2023-03-16T20:12:27.832Z,0.40
2023-03-16T20:17:27.301Z,0.50
2023-03-16T20:22:23.085Z,0.60
2023-03-16T20:27:16.022Z,0.50
2023-03-16T20:32:22.356Z,0.50
2023-03-16T20:37:29.607Z,0.50
2023-03-16T20:42:27.209Z,0.40
2023-03-16T20:47:24.701Z,0.60
2023-03-16T20:52:20.000Z,0.40
2023-03-16T20:57:19.811Z,0.40
2023-03-16T21:02:32.341Z,0.47
2023-03-16T21:07:25.489Z,0.57
2023-03-16T21:12:26.518Z,0.40
2023-03-16T21:17:27.844Z,0.40
2023-03-16T21:22:29.952Z,0.40
2023-03-16T21:27:29.223Z,0.47
2023-03-16T21:32:30.080Z,0.60
2023-03-16T21:37:28.150Z,0.80
2023-03-16T21:42:20.258Z,0.80
2023-03-16T21:47:25.740Z,0.70
2023-03-16T21:52:30.956Z,0.70
2023-03-16T21:57:22.468Z,0.90
2023-03-16T22:02:26.867Z,0.77
2023-03-16T22:07:29.932Z,0.82
2023-03-16T22:12:26.796Z,0.75
2023-03-16T22:17:23.510Z,0.60
2023-03-16T22:22:19.016Z,0.90
2023-03-16T22:27:19.083Z,0.85
2023-03-16T22:32:26.843Z,0.90
2023-03-16T22:37:23.682Z,0.70
2023-03-16T22:42:41.437Z,0.80
2023-03-16T22:47:41.368Z,0.80
2023-03-16T22:52:43.898Z,0.70
2023-03-16T22:57:35.382Z,0.80
2023-03-16T23:02:29.620Z,0.70
2023-03-16T23:07:30.246Z,0.68
2023-03-16T23:12:28.904Z,0.70
2023-03-16T23:17:23.519Z,0.68
2023-03-16T23:22:25.570Z,0.60
2023-03-16T23:27:20.280Z,0.60
2023-03-16T23:32:13.096Z,0.60
2023-03-16T23:37:04.994Z,0.70
2023-03-16T23:42:04.513Z,0.60
2023-03-16T23:46:59.796Z,0.70
2023-03-16T23:51:51.686Z,0.63
2023-03-16T23:56:41.757Z,0.70
